createdAt,value
2023-02-24T00:02:49.642Z,1283.13043
2023-02-24T00:07:51.462Z,1176
2023-02-24T00:12:53.122Z,1254.6383
2023-02-24T00:17:54.765Z,1176
2023-02-24T00:22:56.515Z,1227.33333
2023-02-24T00:27:58.156Z,1227.33333
2023-02-24T00:32:59.834Z,1254.6383
2023-02-24T00:38:01.477Z,1201.14286
2023-02-24T00:43:03.259Z,1254.6383
2023-02-24T00:48:04.891Z,1201.14286
2023-02-24T00:53:06.577Z,1128.61538
2023-02-24T00:58:08.417Z,1151.84314
2023-02-24T01:03:10.057Z,1151.84314
2023-02-24T01:08:11.800Z,1254.6383
2023-02-24T01:13:13.536Z,1176
2023-02-24T01:18:15.322Z,1128.61538
2023-02-24T01:23:16.989Z,1106.26415
2023-02-24T01:28:18.651Z,1151.84314
2023-02-24T01:33:20.379Z,1227.33333
2023-02-24T01:38:22.094Z,1151.84314
2023-02-24T01:43:23.742Z,1176
2023-02-24T01:48:25.407Z,1176
2023-02-24T01:53:27.075Z,1151.84314
2023-02-24T01:58:28.729Z,1254.6383
2023-02-24T02:03:30.348Z,1151.84314
2023-02-24T02:08:32.013Z,1176
2023-02-24T02:13:33.783Z,1201.14286
2023-02-24T02:18:35.493Z,1201.14286
2023-02-24T02:23:37.123Z,1151.84314
2023-02-24T02:28:38.812Z,1176
2023-02-24T02:33:40.493Z,1128.61538
2023-02-24T02:38:42.109Z,1151.84314
2023-02-24T02:43:43.760Z,1128.61538
2023-02-24T02:48:45.370Z,1106.26415
2023-02-24T02:53:47.127Z,1151.84314
2023-02-24T02:58:48.782Z,1201.14286
2023-02-24T03:03:50.592Z,1151.84314
2023-02-24T03:08:52.346Z,1227.33333
2023-02-24T03:13:54.013Z,1128.61538
2023-02-24T03:18:55.633Z,1084.74074
2023-02-24T03:23:57.375Z,1151.84314
2023-02-24T03:28:59.052Z,1064
2023-02-24T03:34:00.689Z,1064
2023-02-24T03:39:02.505Z,1128.61538
2023-02-24T03:44:04.117Z,1044
2023-02-24T03:49:05.818Z,1084.74074
2023-02-24T03:54:07.605Z,906.5
2023-02-24T03:59:09.355Z,1064
2023-02-24T04:04:11.221Z,1006.06897
2023-02-24T04:09:13.040Z,988.0678
2023-02-24T04:14:14.663Z,970.66667
2023-02-24T04:19:16.270Z,906.5
2023-02-24T04:24:17.869Z,877.33333
2023-02-24T04:29:19.679Z,1024.70175
2023-02-24T04:34:21.337Z,921.77778
2023-02-24T04:39:23.085Z,1106.26415
2023-02-24T04:44:24.736Z,1024.70175
2023-02-24T04:49:26.452Z,1106.26415
2023-02-24T04:54:28.174Z,1201.14286
2023-02-24T04:59:29.779Z,937.54839
2023-02-24T05:04:31.600Z,953.83607
2023-02-24T05:09:33.229Z,1106.26415
2023-02-24T05:14:34.874Z,1064
2023-02-24T05:19:36.492Z,937.54839
2023-02-24T05:24:38.177Z,1176
2023-02-24T05:29:39.907Z,970.66667
2023-02-24T05:34:41.512Z,970.66667
2023-02-24T05:39:43.131Z,891.69231
2023-02-24T05:44:44.757Z,849.88235
2023-02-24T05:49:46.507Z,877.33333
2023-02-24T05:54:48.342Z,836.75362
2023-02-24T05:59:50.025Z,863.40299
2023-02-24T06:04:51.836Z,836.75362
2023-02-24T06:09:54.092Z,863.40299
2023-02-24T06:14:55.737Z,824
2023-02-24T06:19:57.530Z,811.60563
2023-02-24T06:24:59.492Z,765.33333
2023-02-24T06:30:01.173Z,714
2023-02-24T06:35:02.777Z,686.16867
2023-02-24T06:40:04.388Z,733.74359
2023-02-24T06:45:07.836Z,754.52632
2023-02-24T06:50:09.702Z,733.74359
2023-02-24T06:55:11.345Z,765.33333
2023-02-24T07:00:13.019Z,921.77778
2023-02-24T07:05:14.791Z,811.60563
2023-02-24T07:10:16.640Z,937.54839
2023-02-24T07:15:18.628Z,849.88235
2023-02-24T07:20:20.325Z,921.77778
2023-02-24T07:25:22.016Z,811.60563
2023-02-24T07:30:23.766Z,811.60563
2023-02-24T07:35:25.422Z,799.55556
2023-02-24T07:40:27.154Z,877.33333
2023-02-24T07:45:28.792Z,863.40299
2023-02-24T07:50:30.585Z,863.40299
2023-02-24T07:55:32.361Z,849.88235
2023-02-24T08:00:33.985Z,877.33333
2023-02-24T08:05:35.717Z,863.40299
2023-02-24T08:10:37.620Z,877.33333
2023-02-24T08:15:39.364Z,921.77778
2023-02-24T08:20:41.140Z,877.33333
2023-02-24T08:25:42.872Z,921.77778
2023-02-24T08:30:44.613Z,863.40299
2023-02-24T08:35:46.461Z,921.77778
2023-02-24T08:40:48.185Z,953.83607
2023-02-24T08:45:49.898Z,891.69231
2023-02-24T08:50:51.542Z,877.33333
2023-02-24T08:55:53.153Z,921.77778
2023-02-24T09:00:54.815Z,849.88235
2023-02-24T09:05:56.512Z,906.5
2023-02-24T09:10:58.115Z,836.75362
2023-02-24T09:15:59.775Z,776.43243
2023-02-24T09:21:01.526Z,744
2023-02-24T09:26:03.126Z,733.74359
2023-02-24T09:31:06.908Z,863.40299
2023-02-24T09:36:08.554Z,891.69231
2023-02-24T09:41:18.230Z,970.66667
2023-02-24T09:46:20.717Z,877.33333
2023-02-24T09:51:22.907Z,906.5
2023-02-24T09:56:24.802Z,891.69231
2023-02-24T10:01:26.509Z,849.88235
2023-02-24T10:06:28.125Z,863.40299
2023-02-24T10:11:29.793Z,1006.06897
2023-02-24T10:16:31.634Z,863.40299
2023-02-24T10:21:33.412Z,891.69231
2023-02-24T10:26:35.030Z,921.77778
2023-02-24T10:31:36.766Z,953.83607
2023-02-24T10:36:38.469Z,906.5
2023-02-24T10:41:40.177Z,877.33333
2023-02-24T10:46:43.055Z,953.83607
2023-02-24T10:51:45.277Z,937.54839
2023-02-24T10:56:47.008Z,906.5
2023-02-24T11:01:48.851Z,863.40299
2023-02-24T11:06:50.534Z,811.60563
2023-02-24T11:11:52.230Z,733.74359
2023-02-24T11:16:54.320Z,765.33333
2023-02-24T11:21:55.932Z,733.74359
2023-02-24T11:26:57.622Z,776.43243
2023-02-24T11:31:59.455Z,863.40299
2023-02-24T11:37:01.341Z,824
2023-02-24T11:42:02.986Z,891.69231
2023-02-24T11:47:04.610Z,824
2023-02-24T11:52:06.295Z,744
2023-02-24T11:57:08.027Z,836.75362
2023-02-24T12:02:09.668Z,891.69231
2023-02-24T12:07:11.526Z,849.88235
2023-02-24T12:12:13.728Z,863.40299
2023-02-24T12:17:15.474Z,849.88235
2023-02-24T12:22:17.105Z,824
2023-02-24T12:27:18.708Z,1006.06897
2023-02-24T12:32:20.424Z,1044
2023-02-24T12:37:22.193Z,988.0678
2023-02-24T12:42:23.896Z,1024.70175
2023-02-24T12:47:25.511Z,988.0678
2023-02-24T12:52:27.270Z,1006.06897
2023-02-24T12:57:28.870Z,1064
2023-02-24T13:02:30.820Z,1064
2023-02-24T13:07:32.666Z,1024.70175
2023-02-24T13:12:34.241Z,1084.74074
2023-02-24T13:17:35.880Z,1044
2023-02-24T13:22:37.634Z,1044
2023-02-24T13:27:39.284Z,1006.06897
2023-02-24T13:32:41.095Z,1044
2023-02-24T13:37:42.832Z,1064
2023-02-24T13:42:44.499Z,849.88235
2023-02-24T13:47:46.126Z,754.52632
2023-02-24T13:52:47.999Z,714
2023-02-24T13:57:49.801Z,644
2023-02-24T14:02:51.494Z,744
2023-02-24T14:07:53.137Z,849.88235
2023-02-24T14:12:54.973Z,891.69231
2023-02-24T14:17:56.649Z,906.5
2023-02-24T14:22:58.304Z,953.83607
2023-02-24T14:28:00.031Z,921.77778
2023-02-24T14:33:02.153Z,863.40299
2023-02-24T14:38:03.804Z,613.56522
2023-02-24T14:43:05.447Z,877.33333
2023-02-24T14:48:07.128Z,937.54839
2023-02-24T14:53:08.784Z,891.69231
2023-02-24T14:58:10.422Z,988.0678
2023-02-24T15:03:12.134Z,970.66667
2023-02-24T15:08:13.842Z,849.88235
2023-02-24T15:13:15.639Z,836.75362
2023-02-24T15:18:17.277Z,849.88235
2023-02-24T15:23:18.946Z,906.5
2023-02-24T15:28:20.704Z,863.40299
2023-02-24T15:33:22.390Z,937.54839
2023-02-24T15:38:24.020Z,863.40299
2023-02-24T15:43:25.833Z,863.40299
2023-02-24T15:48:28.064Z,811.60563
2023-02-24T15:53:30.637Z,863.40299
2023-02-24T15:58:32.414Z,953.83607
2023-02-24T16:03:34.182Z,988.0678
2023-02-24T16:08:35.863Z,836.75362
2023-02-24T16:13:37.549Z,1064
2023-02-24T16:18:39.190Z,953.83607
2023-02-24T16:23:40.795Z,953.83607
2023-02-24T16:28:42.425Z,953.83607
2023-02-24T16:33:54.078Z,988.0678
2023-02-24T16:38:56.897Z,921.77778
2023-02-24T16:43:58.482Z,937.54839
2023-02-24T16:49:00.150Z,937.54839
2023-02-24T16:54:01.867Z,921.77778
2023-02-24T16:59:03.492Z,849.88235
2023-02-24T17:04:05.279Z,906.5
2023-02-24T17:09:06.967Z,877.33333
2023-02-24T17:14:08.588Z,891.69231
2023-02-24T17:19:10.262Z,937.54839
2023-02-24T17:24:11.966Z,937.54839
2023-02-24T17:29:13.656Z,970.66667
2023-02-24T17:34:15.501Z,921.77778
2023-02-24T17:39:17.199Z,953.83607
2023-02-24T17:44:18.826Z,921.77778
2023-02-24T17:49:20.477Z,953.83607
2023-02-24T17:54:22.101Z,891.69231
2023-02-24T17:59:23.746Z,921.77778
2023-02-24T18:04:25.378Z,937.54839
2023-02-24T18:09:27.070Z,988.0678
2023-02-24T18:14:28.712Z,921.77778
2023-02-24T18:19:30.333Z,937.54839
2023-02-24T18:24:31.980Z,921.77778
2023-02-24T18:29:33.690Z,921.77778
2023-02-24T18:34:35.333Z,953.83607
2023-02-24T18:39:36.992Z,877.33333
2023-02-24T18:44:38.660Z,891.69231
2023-02-24T18:49:40.319Z,921.77778
2023-02-24T18:54:41.988Z,906.5
2023-02-24T18:59:43.576Z,891.69231
2023-02-24T19:04:45.236Z,921.77778
2023-02-24T19:09:46.900Z,906.5
2023-02-24T19:14:48.539Z,937.54839
2023-02-24T19:19:50.226Z,937.54839
2023-02-24T19:24:52.007Z,891.69231
2023-02-24T19:29:53.650Z,877.33333
2023-02-24T19:34:55.267Z,863.40299
2023-02-24T19:39:57.014Z,877.33333
2023-02-24T19:44:58.754Z,877.33333
2023-02-24T19:50:00.456Z,906.5
2023-02-24T19:55:02.129Z,988.0678
2023-02-24T20:00:03.729Z,970.66667
2023-02-24T20:05:05.481Z,921.77778
2023-02-24T20:10:07.212Z,877.33333
2023-02-24T20:15:08.902Z,937.54839
2023-02-24T20:20:10.528Z,891.69231
2023-02-24T20:25:12.126Z,877.33333
2023-02-24T20:30:13.933Z,1044
2023-02-24T20:35:15.634Z,970.66667
2023-02-24T20:40:17.268Z,1084.74074
2023-02-24T20:45:18.967Z,921.77778
2023-02-24T20:50:20.683Z,1064
2023-02-24T20:55:22.339Z,906.5
2023-02-24T21:00:24.059Z,1084.74074
2023-02-24T21:05:25.646Z,1084.74074
2023-02-24T21:10:27.243Z,970.66667
2023-02-24T21:15:29.205Z,1024.70175
2023-02-24T21:20:30.892Z,1006.06897
2023-02-24T21:25:32.546Z,1006.06897
2023-02-24T21:30:34.260Z,891.69231
2023-02-24T21:35:35.903Z,953.83607
2023-02-24T21:40:37.710Z,970.66667
2023-02-24T21:45:39.652Z,906.5
2023-02-24T21:50:41.275Z,1024.70175
2023-02-24T21:55:42.904Z,1024.70175
2023-02-24T22:00:44.502Z,863.40299
2023-02-24T22:05:46.129Z,906.5
2023-02-24T22:10:47.886Z,906.5
2023-02-24T22:15:49.527Z,921.77778
2023-02-24T22:20:51.181Z,921.77778
2023-02-24T22:25:52.823Z,921.77778
2023-02-24T22:30:55.685Z,970.66667
2023-02-24T22:35:57.326Z,953.83607
2023-02-24T22:40:59.064Z,1006.06897
2023-02-24T22:46:00.791Z,1044
2023-02-24T22:51:02.433Z,988.0678
2023-02-24T22:56:04.122Z,988.0678
2023-02-24T23:01:05.950Z,1064
2023-02-24T23:06:07.624Z,1044
2023-02-24T23:11:09.465Z,953.83607
2023-02-24T23:16:11.221Z,953.83607
2023-02-24T23:21:12.883Z,970.66667
2023-02-24T23:26:14.481Z,877.33333
2023-02-24T23:31:16.294Z,863.40299
2023-02-24T23:36:18.052Z,921.77778
2023-02-24T23:41:19.891Z,921.77778
2023-02-24T23:46:22.206Z,1024.70175
2023-02-24T23:51:24.092Z,970.66667
2023-02-24T23:56:25.690Z,891.69231
